Time;durP1;ratioP1;P1;durP2;ratioP2;P2;SDS_P1;SDS_P2;PMS_P1;PMS_P2;Temp;Humidity;BMP_temperature;BMP_pressure;BME280_temperature;BME280_humidity;BME280_pressure;Samples;Min_cycle;Max_cycle;Signal;HPM_P1;HPM_P2
2022/06/14 00:00:53;;;;;;;7.50;4.70;;;7.80;99.90;;;;;;5091598;28;20487;-87
2022/06/14 00:02:27;;;;;;;11.70;5.00;;;7.90;99.90;;;;;;5090968;28;20535;-86
2022/06/14 00:04:54;;;;;;;10.23;4.78;;;8.00;99.90;;;;;;5091484;28;20421;-87
2022/06/14 00:07:21;;;;;;;9.50;4.93;;;8.20;99.90;;;;;;5072833;28;20373;-85
2022/06/14 00:09:48;;;;;;;9.13;4.40;;;8.20;99.90;;;;;;5090938;28;20381;-86
2022/06/14 00:12:15;;;;;;;6.68;4.30;;;8.30;99.90;;;;;;5072769;28;20456;-88
2022/06/14 00:14:42;;;;;;;7.60;4.40;;;8.40;99.90;;;;;;5091040;28;20830;-86
2022/06/14 00:17:10;;;;;;;5.63;4.05;;;8.50;99.90;;;;;;5072594;28;20433;-87
2022/06/14 00:19:37;;;;;;;8.18;4.47;;;8.50;99.90;;;;;;5090601;28;20959;-89
2022/06/14 00:22:04;;;;;;;5.80;4.30;;;8.60;99.90;;;;;;5090605;28;20376;-86
2022/06/14 00:24:31;;;;;;;6.85;4.35;;;8.70;99.90;;;;;;5090438;28;20377;-89
2022/06/14 00:26:58;;;;;;;7.03;4.70;;;8.80;99.90;;;;;;5091010;28;20449;-87
2022/06/14 00:29:26;;;;;;;5.25;4.75;;;8.90;99.90;;;;;;5090524;28;20401;-87
2022/06/14 00:31:53;;;;;;;6.82;4.90;;;8.90;99.90;;;;;;5090583;28;20365;-87
2022/06/14 00:34:20;;;;;;;7.85;5.00;;;9.10;99.90;;;;;;5090343;28;20775;-87
2022/06/14 00:36:55;;;;;;;6.63;5.00;;;9.20;99.90;;;;;;5090113;28;20469;-85
2022/06/14 00:39:23;;;;;;;5.90;4.60;;;9.20;99.90;;;;;;5090131;28;20404;-88
2022/06/14 00:41:54;;;;;;;11.23;5.20;;;9.20;99.90;;;;;;5089373;28;20361;-87
2022/06/14 00:44:25;;;;;;;5.28;4.72;;;9.30;99.90;;;;;;5090527;28;20364;-86
2022/06/14 00:47:13;;;;;;;6.07;5.00;;;9.50;99.90;;;;;;5090031;28;20368;-86
2022/06/14 00:49:50;;;;;;;8.30;5.57;;;9.80;99.90;;;;;;5090039;28;20360;-88
2022/06/14 00:52:26;;;;;;;7.03;5.07;;;9.90;99.90;;;;;;5089938;28;20438;-85
2022/06/14 00:54:59;;;;;;;7.28;5.10;;;10.10;99.90;;;;;;5089742;28;20380;-89
2022/06/14 00:57:34;;;;;;;7.32;5.30;;;10.10;99.90;;;;;;5090066;28;20401;-88
2022/06/14 01:00:12;;;;;;;7.93;5.22;;;10.10;99.90;;;;;;5089889;28;20399;-86
2022/06/14 01:03:02;;;;;;;9.30;5.30;;;10.10;99.90;;;;;;5089777;28;20368;-86
2022/06/14 01:08:28;;;;;;;7.65;5.22;;;10.30;99.90;;;;;;5089595;28;20403;-88
2022/06/14 01:10:56;;;;;;;7.82;5.38;;;10.40;99.90;;;;;;5089691;28;20364;-86
2022/06/14 01:13:23;;;;;;;12.98;5.05;;;10.50;99.90;;;;;;5090055;28;20845;-87
2022/06/14 01:15:55;;;;;;;8.25;5.07;;;10.50;99.90;;;;;;5089493;28;20404;-84
2022/06/14 01:18:25;;;;;;;5.80;4.72;;;10.60;99.90;;;;;;5089424;28;20447;-86
2022/06/14 01:20:52;;;;;;;6.97;4.60;;;10.80;99.90;;;;;;5089312;28;20403;-85
2022/06/14 01:23:19;;;;;;;6.80;4.70;;;11.00;99.90;;;;;;5089344;28;20433;-85
2022/06/14 01:25:55;;;;;;;6.90;4.50;;;11.10;99.90;;;;;;5089665;28;20404;-88
2022/06/14 01:28:25;;;;;;;5.00;4.50;;;11.00;99.90;;;;;;5089204;28;20369;-85
2022/06/14 01:30:54;;;;;;;7.68;4.85;;;11.10;99.90;;;;;;5089297;28;20451;-87
2022/06/14 01:33:39;;;;;;;6.10;4.40;;;11.20;99.90;;;;;;5089187;28;20817;-86
2022/06/14 01:36:34;;;;;;;6.25;4.50;;;11.40;99.90;;;;;;5088992;28;20393;-87
2022/06/14 01:39:05;;;;;;;7.00;4.70;;;11.50;99.90;;;;;;5084611;28;20395;-87
2022/06/14 01:42:20;;;;;;;5.70;4.77;;;11.60;99.90;;;;;;5088278;28;20445;-87
2022/06/14 01:44:57;;;;;;;6.13;4.68;;;11.60;99.90;;;;;;4987656;28;20392;-86
2022/06/14 01:47:55;;;;;;;7.43;4.75;;;11.50;99.90;;;;;;4987542;28;20385;-85
2022/06/14 01:53:48;;;;;;;7.45;6.20;;;11.60;99.90;;;;;;4987470;28;20392;-87
2022/06/14 01:56:33;;;;;;;8.77;6.00;;;11.80;99.90;;;;;;4987806;28;20388;-85
2022/06/14 01:59:17;;;;;;;7.85;5.68;;;12.00;99.90;;;;;;4987360;28;20405;-84
2022/06/14 02:01:52;;;;;;;7.88;5.00;;;12.10;99.90;;;;;;4987808;28;20393;-86
2022/06/14 02:04:40;;;;;;;6.60;4.40;;;12.10;99.90;;;;;;4987318;28;20377;-88
2022/06/14 02:07:18;;;;;;;8.50;4.57;;;12.30;99.90;;;;;;4987484;28;20377;-88
2022/06/14 02:09:54;;;;;;;7.20;3.90;;;12.30;99.90;;;;;;4987490;28;20442;-87
2022/06/14 02:12:35;;;;;;;6.53;3.88;;;12.40;99.90;;;;;;4987839;28;20452;-88
2022/06/14 02:15:13;;;;;;;6.63;4.03;;;12.40;99.90;;;;;;4971129;28;20421;-86
2022/06/14 02:17:56;;;;;;;6.18;3.80;;;12.50;99.90;;;;;;4987502;28;20424;-86
2022/06/14 02:20:27;;;;;;;6.20;4.13;;;12.70;99.90;;;;;;5004948;28;20916;-89
2022/06/14 02:23:03;;;;;;;7.57;4.25;;;12.80;99.90;;;;;;5088685;28;20360;-84
2022/06/14 02:25:37;;;;;;;5.75;4.18;;;12.80;99.90;;;;;;5088618;28;20360;-85
2022/06/14 02:28:11;;;;;;;7.22;4.80;;;12.90;99.90;;;;;;5088561;28;20379;-87
2022/06/14 02:30:48;;;;;;;9.30;5.18;;;13.00;99.90;;;;;;5088750;28;20365;-86
2022/06/14 02:33:21;;;;;;;8.13;4.90;;;13.20;99.90;;;;;;5089179;28;20457;-83
2022/06/14 02:36:05;;;;;;;6.65;5.00;;;13.30;99.90;;;;;;5088219;28;20399;-88
2022/06/14 02:38:43;;;;;;;6.32;4.70;;;13.40;99.90;;;;;;5088465;28;20859;-85
2022/06/14 02:41:42;;;;;;;9.20;4.47;;;13.50;99.90;;;;;;5088612;28;20384;-88
2022/06/14 02:44:15;;;;;;;8.48;4.43;;;13.60;99.90;;;;;;5088253;28;20387;-87
2022/06/14 02:46:51;;;;;;;7.97;4.10;;;13.70;99.90;;;;;;5088351;28;20369;-86
2022/06/14 02:49:18;;;;;;;6.82;3.47;;;13.70;99.90;;;;;;5088682;28;20375;-90
2022/06/14 02:52:14;;;;;;;3.90;2.58;;;13.80;99.90;;;;;;5088795;28;20432;-88
2022/06/14 02:55:04;;;;;;;7.03;3.05;;;13.90;99.90;;;;;;4986780;28;20385;-88
2022/06/14 02:57:50;;;;;;;5.35;2.80;;;14.00;99.90;;;;;;4987121;28;20381;-85
2022/06/14 03:00:38;;;;;;;4.97;2.97;;;14.00;99.90;;;;;;4987021;28;20495;-87
2022/06/14 03:03:18;;;;;;;5.07;2.40;;;14.00;99.90;;;;;;4987127;28;20373;-84
2022/06/14 03:05:57;;;;;;;3.37;2.10;;;14.10;99.90;;;;;;4988910;28;20497;-87
2022/06/14 03:08:47;;;;;;;3.17;2.03;;;14.20;99.90;;;;;;4990931;28;20452;-85
2022/06/14 03:11:14;;;;;;;5.18;2.20;;;14.30;99.90;;;;;;4932562;29;20503;-88
2022/06/14 03:14:00;;;;;;;3.37;1.90;;;14.40;99.90;;;;;;4932674;29;20445;-87
2022/06/14 03:16:32;;;;;;;5.45;2.00;;;14.50;99.90;;;;;;4916445;29;20495;-86
2022/06/14 03:19:21;;;;;;;4.18;1.98;;;14.70;99.90;;;;;;4932452;29;20819;-85
2022/06/14 03:22:08;;;;;;;4.05;1.92;;;14.80;99.90;;;;;;4932593;29;20437;-87
2022/06/14 03:24:51;;;;;;;3.95;1.70;;;14.80;99.90;;;;;;4932587;29;20457;-85
2022/06/14 03:27:39;;;;;;;4.20;1.80;;;14.80;99.90;;;;;;4932082;29;20393;-85
2022/06/14 03:30:48;;;;;;;5.15;1.60;;;15.00;99.70;;;;;;4932019;29;20462;-86
2022/06/14 03:33:38;;;;;;;3.35;1.80;;;15.10;99.60;;;;;;4951317;28;20392;-84
2022/06/14 03:36:06;;;;;;;3.70;1.42;;;15.10;98.80;;;;;;4951007;29;20487;-86
2022/06/14 03:38:40;;;;;;;4.10;1.70;;;15.20;99.10;;;;;;4951485;29;20396;-86
2022/06/14 03:41:13;;;;;;;2.40;1.40;;;15.30;98.60;;;;;;4951771;29;20392;-87
2022/06/14 03:43:41;;;;;;;1.40;1.20;;;15.40;98.40;;;;;;4951875;29;20380;-86
2022/06/14 03:46:16;;;;;;;3.45;1.40;;;15.50;97.40;;;;;;4951083;29;20527;-87
2022/06/14 03:48:49;;;;;;;3.45;1.20;;;15.40;97.90;;;;;;4937688;29;20390;-87
2022/06/14 03:51:57;;;;;;;1.85;1.10;;;15.50;97.60;;;;;;4932188;29;20378;-87
2022/06/14 03:54:30;;;;;;;2.67;1.10;;;15.40;96.20;;;;;;4916251;29;20393;-86
2022/06/14 03:57:06;;;;;;;2.17;0.90;;;15.30;97.40;;;;;;4932646;29;20812;-87
2022/06/14 03:59:54;;;;;;;0.88;0.73;;;15.40;97.00;;;;;;4932586;29;20421;-85
2022/06/14 04:02:57;;;;;;;3.22;0.90;;;15.40;96.90;;;;;;4932306;29;20383;-88
2022/06/14 04:05:53;;;;;;;8.05;1.10;;;15.40;97.10;;;;;;4894387;29;20401;-86
2022/06/14 04:08:44;;;;;;;2.00;0.90;;;15.50;97.00;;;;;;4901088;29;20380;-85
2022/06/14 04:11:11;;;;;;;1.55;0.73;;;15.60;96.40;;;;;;4915394;29;20407;-82
2022/06/14 04:14:08;;;;;;;1.73;0.90;;;15.60;96.80;;;;;;4958044;28;20828;-83
2022/06/14 04:16:35;;;;;;;1.60;0.80;;;15.70;96.70;;;;;;4976697;28;20379;-82
2022/06/14 04:19:20;;;;;;;2.00;0.80;;;15.80;96.20;;;;;;4971649;28;20405;-86
2022/06/14 04:22:17;;;;;;;2.17;0.90;;;15.90;95.90;;;;;;4970395;28;20429;-85
2022/06/14 04:25:08;;;;;;;2.42;0.90;;;15.80;95.50;;;;;;4969760;28;20498;-85
2022/06/14 04:27:44;;;;;;;1.42;0.60;;;15.90;96.00;;;;;;4969877;28;20414;-86
2022/06/14 04:30:24;;;;;;;2.45;0.60;;;15.90;94.70;;;;;;4970322;28;20384;-87
2022/06/14 04:33:14;;;;;;;2.60;0.65;;;15.90;94.40;;;;;;4969547;28;20864;-87
2022/06/14 04:35:52;;;;;;;1.88;0.70;;;15.90;94.90;;;;;;4975627;28;20404;-86
2022/06/14 04:38:44;;;;;;;1.92;0.70;;;16.00;94.70;;;;;;4989436;28;20464;-85
2022/06/14 04:41:31;;;;;;;2.70;0.77;;;15.90;95.20;;;;;;4996174;28;20403;-87
2022/06/14 04:44:21;;;;;;;2.13;0.70;;;16.00;94.90;;;;;;5090269;28;20373;-87
2022/06/14 04:47:03;;;;;;;0.60;0.50;;;16.00;94.40;;;;;;4991717;28;20868;-86
2022/06/14 04:49:39;;;;;;;0.90;0.60;;;16.00;93.70;;;;;;5008786;28;20506;-85
2022/06/14 04:52:32;;;;;;;1.10;0.70;;;16.00;93.80;;;;;;5008530;28;20375;-86
2022/06/14 04:55:10;;;;;;;0.80;0.60;;;16.30;92.50;;;;;;5008446;28;20394;-86
2022/06/14 04:57:45;;;;;;;1.00;0.60;;;16.80;91.70;;;;;;5008393;28;20372;-86
2022/06/14 05:00:25;;;;;;;1.45;0.60;;;17.00;90.10;;;;;;4991641;28;20408;-87
2022/06/14 05:02:52;;;;;;;1.00;0.63;;;16.80;89.80;;;;;;5007856;28;20390;-85
2022/06/14 05:05:29;;;;;;;1.20;0.60;;;16.60;90.80;;;;;;4991538;28;20375;-88
2022/06/14 05:08:05;;;;;;;3.35;0.68;;;16.40;91.50;;;;;;5008178;28;20388;-87
2022/06/14 05:10:40;;;;;;;1.77;0.60;;;16.30;91.60;;;;;;4991280;28;20376;-87
2022/06/14 05:13:46;;;;;;;1.45;0.57;;;16.10;91.20;;;;;;5008152;28;20383;-89
2022/06/14 05:16:32;;;;;;;2.40;0.80;;;16.00;91.50;;;;;;5006526;28;20455;-87
2022/06/14 05:19:09;;;;;;;1.35;0.60;;;16.00;92.10;;;;;;5007740;28;20407;-85
2022/06/14 05:22:03;;;;;;;1.73;0.70;;;15.90;92.60;;;;;;5007898;28;20430;-87
2022/06/14 05:24:31;;;;;;;0.80;0.50;;;15.80;92.60;;;;;;5068783;28;20376;-85
2022/06/14 05:27:36;;;;;;;1.40;0.60;;;15.80;92.90;;;;;;5089361;28;20438;-86
2022/06/14 05:30:11;;;;;;;2.00;0.60;;;15.70;92.80;;;;;;5089945;28;20365;-85
2022/06/14 05:33:15;;;;;;;1.98;0.70;;;15.60;93.20;;;;;;5088175;28;20382;-84
2022/06/14 05:35:53;;;;;;;2.15;0.70;;;15.50;93.40;;;;;;5089441;28;20868;-86
2022/06/14 05:38:45;;;;;;;3.37;0.57;;;15.50;93.70;;;;;;5089839;28;20374;-86
2022/06/14 05:41:20;;;;;;;0.88;0.70;;;15.40;94.00;;;;;;5090056;28;20387;-86
2022/06/14 05:44:14;;;;;;;1.98;0.60;;;15.50;94.30;;;;;;5089563;28;20721;-85
2022/06/14 05:46:53;;;;;;;1.63;0.63;;;15.40;93.70;;;;;;5079756;28;20860;-86
2022/06/14 05:49:31;;;;;;;1.70;0.70;;;15.40;94.00;;;;;;5089691;28;20361;-87
2022/06/14 05:52:15;;;;;;;0.60;0.55;;;15.40;94.30;;;;;;5089580;28;20365;-86
2022/06/14 05:54:50;;;;;;;1.83;0.70;;;15.40;94.50;;;;;;5089072;28;20417;-87
2022/06/14 05:57:23;;;;;;;2.83;0.68;;;15.40;94.50;;;;;;5089694;28;20931;-91
2022/06/14 06:00:02;;;;;;;3.15;0.60;;;15.30;94.60;;;;;;5071397;28;20426;-85
2022/06/14 06:02:32;;;;;;;1.85;0.60;;;15.10;95.10;;;;;;5090061;28;20352;-86
2022/06/14 06:05:35;;;;;;;2.83;0.60;;;15.00;95.30;;;;;;5089317;28;20867;-85
2022/06/14 06:08:07;;;;;;;1.27;0.80;;;14.90;95.90;;;;;;5075777;28;20458;-85
2022/06/14 06:10:43;;;;;;;1.55;0.63;;;14.70;96.20;;;;;;5070851;28;20376;-90
2022/06/14 06:13:20;;;;;;;1.13;0.63;;;14.80;96.60;;;;;;5089818;28;20386;-89
2022/06/14 06:16:19;;;;;;;3.10;0.70;;;14.80;96.70;;;;;;5089317;28;20459;-88
2022/06/14 06:19:12;;;;;;;1.85;0.77;;;14.70;96.60;;;;;;5088045;28;20404;-87
2022/06/14 06:21:57;;;;;;;2.15;0.70;;;14.50;97.00;;;;;;5090266;28;20364;-81
2022/06/14 06:24:28;;;;;;;3.10;0.90;;;14.30;97.20;;;;;;5089843;28;20428;-85
2022/06/14 06:27:03;;;;;;;2.13;0.80;;;14.10;98.00;;;;;;5089597;28;20418;-87
2022/06/14 06:29:48;;;;;;;3.67;0.80;;;13.90;99.10;;;;;;5089550;28;20356;-85
2022/06/14 06:32:18;;;;;;;0.73;0.70;;;13.80;99.90;;;;;;5088773;28;20380;-92
2022/06/14 06:34:46;;;;;;;3.00;0.73;;;13.60;99.90;;;;;;5071138;28;20379;-88
2022/06/14 06:37:30;;;;;;;1.92;0.80;;;13.50;99.90;;;;;;5086556;28;20413;-92
2022/06/14 06:40:06;;;;;;;4.35;0.80;;;13.40;99.90;;;;;;5089775;28;20420;-86
2022/06/14 06:42:45;;;;;;;3.67;0.85;;;13.30;99.90;;;;;;5093602;28;20704;-90
2022/06/14 06:45:17;;;;;;;1.80;0.80;;;13.00;99.90;;;;;;5092854;28;20475;-86
2022/06/14 06:47:57;;;;;;;2.72;0.90;;;12.80;99.90;;;;;;5092642;28;20425;-83
2022/06/14 06:51:05;;;;;;;2.72;1.02;;;12.70;99.90;;;;;;5092755;28;20368;-86
2022/06/14 06:53:42;;;;;;;4.32;1.10;;;12.50;99.90;;;;;;5089829;28;20368;-81
2022/06/14 06:56:09;;;;;;;1.60;1.10;;;12.30;99.90;;;;;;5092910;28;20810;-83
2022/06/14 06:58:54;;;;;;;3.50;1.55;;;12.20;99.90;;;;;;5092366;28;20712;-84
2022/06/14 07:01:35;;;;;;;3.57;1.47;;;12.00;99.90;;;;;;5093016;28;20394;-85
2022/06/14 07:07:33;;;;;;;3.95;1.52;;;11.70;99.90;;;;;;5092506;28;20884;-84
2022/06/14 07:10:16;;;;;;;4.53;1.43;;;11.50;99.90;;;;;;5092433;28;20413;-81
2022/06/14 07:13:02;;;;;;;2.35;1.35;;;11.40;99.90;;;;;;5092073;28;20375;-84
2022/06/14 07:15:40;;;;;;;2.00;1.20;;;11.20;99.90;;;;;;5091976;28;20720;-82
2022/06/14 07:18:23;;;;;;;4.20;1.40;;;11.10;99.90;;;;;;5091789;28;20357;-81
2022/06/14 07:21:14;;;;;;;3.25;1.70;;;10.90;99.90;;;;;;5091926;28;20396;-86
2022/06/14 07:23:48;;;;;;;148.10;111.43;;;10.80;99.90;;;;;;5092496;28;20418;-84
2022/06/14 07:26:36;;;;;;;287.75;232.27;;;10.70;99.90;;;;;;5093564;28;20848;-83
2022/06/14 07:29:10;;;;;;;265.13;218.77;;;10.60;99.90;;;;;;5091824;28;20368;-85
2022/06/14 07:31:46;;;;;;;348.42;261.58;;;10.40;99.90;;;;;;5091372;28;20864;-80
2022/06/14 07:34:15;;;;;;;79.32;58.70;;;10.40;99.90;;;;;;5090258;28;20422;-85
2022/06/14 07:37:10;;;;;;;38.70;26.75;;;10.40;99.90;;;;;;5093871;28;20388;-85
2022/06/14 07:39:54;;;;;;;43.45;33.15;;;10.30;99.90;;;;;;5091534;28;20383;-85
2022/06/14 07:42:44;;;;;;;31.85;24.33;;;10.30;99.90;;;;;;5091144;28;20867;-85
2022/06/14 07:45:23;;;;;;;20.67;15.32;;;10.30;99.90;;;;;;5091684;28;20363;-85
2022/06/14 07:48:12;;;;;;;20.00;15.40;;;10.30;99.90;;;;;;5091562;28;20396;-83
2022/06/14 07:50:39;;;;;;;16.42;12.77;;;10.30;99.90;;;;;;5091597;28;20361;-85
2022/06/14 07:53:11;;;;;;;14.25;9.90;;;10.20;99.90;;;;;;5091420;28;20414;-85
2022/06/14 07:55:45;;;;;;;23.65;16.85;;;10.20;99.90;;;;;;5091675;28;20426;-84
2022/06/14 07:58:30;;;;;;;15.60;11.50;;;10.10;99.90;;;;;;5091540;28;20408;-82
2022/06/14 08:01:17;;;;;;;20.60;14.80;;;9.90;99.90;;;;;;5094786;28;20400;-85
2022/06/14 08:04:06;;;;;;;11.68;9.45;;;9.90;99.90;;;;;;5092899;28;20429;-90
2022/06/14 08:06:42;;;;;;;21.48;15.65;;;9.90;99.90;;;;;;5095887;28;20375;-86
2022/06/14 08:09:28;;;;;;;18.67;14.00;;;9.90;99.90;;;;;;5091623;28;20367;-85
2022/06/14 08:11:58;;;;;;;15.48;10.05;;;9.80;99.90;;;;;;5092168;28;20862;-81
2022/06/14 08:14:56;;;;;;;27.10;20.58;;;9.70;99.90;;;;;;5091109;28;20377;-84
2022/06/14 08:17:55;;;;;;;50.17;39.20;;;9.60;99.90;;;;;;5091502;28;20368;-81
2022/06/14 08:20:26;;;;;;;181.43;123.50;;;9.60;99.90;;;;;;5092063;28;20906;-85
2022/06/14 08:23:13;;;;;;;215.32;148.68;;;9.50;99.90;;;;;;5093303;28;20357;-83
2022/06/14 08:25:46;;;;;;;245.20;170.25;;;9.50;99.90;;;;;;5090656;28;20364;-80
2022/06/14 08:28:41;;;;;;;177.07;124.23;;;9.40;99.90;;;;;;5092033;28;20374;-79
2022/06/14 08:31:22;;;;;;;209.27;145.55;;;9.40;99.90;;;;;;5090511;28;20371;-83
2022/06/14 08:34:12;;;;;;;169.35;117.85;;;9.30;99.90;;;;;;5090275;28;20748;-77
2022/06/14 08:37:06;;;;;;;165.05;121.03;;;9.30;99.90;;;;;;5089894;28;20380;-81
2022/06/14 08:39:44;;;;;;;196.27;135.52;;;9.30;99.90;;;;;;5089923;28;20885;-79
2022/06/14 08:42:33;;;;;;;113.63;80.22;;;9.20;99.90;;;;;;5090003;28;20375;-82
2022/06/14 08:45:11;;;;;;;67.97;47.60;;;9.10;99.90;;;;;;5093296;28;20370;-77
2022/06/14 08:47:41;;;;;;;68.65;48.92;;;9.10;99.90;;;;;;5092629;28;20367;-83
2022/06/14 08:50:34;;;;;;;82.50;58.15;;;9.10;99.90;;;;;;5092471;28;20376;-84
2022/06/14 08:53:38;;;;;;;65.03;47.10;;;9.00;99.90;;;;;;5090017;28;20399;-82
2022/06/14 08:56:20;;;;;;;23.52;14.13;;;8.90;99.90;;;;;;5089679;28;20365;-79
2022/06/14 08:58:57;;;;;;;26.47;18.87;;;8.90;99.90;;;;;;5092105;28;20518;-86
2022/06/14 09:01:56;;;;;;;31.83;21.50;;;8.90;99.90;;;;;;5093555;28;20868;-78
2022/06/14 09:04:54;;;;;;;22.98;13.85;;;8.80;99.90;;;;;;4990935;28;20381;-79
2022/06/14 09:07:39;;;;;;;26.60;15.50;;;8.80;99.90;;;;;;4988119;28;20450;-79
2022/06/14 09:10:25;;;;;;;15.20;8.18;;;8.70;99.90;;;;;;4987971;28;20376;-78
2022/06/14 09:13:16;;;;;;;17.60;9.73;;;8.70;99.90;;;;;;4990255;28;20946;-79
2022/06/14 09:16:13;;;;;;;20.88;9.88;;;8.70;99.90;;;;;;4988390;28;20453;-80
2022/06/14 09:19:00;;;;;;;26.75;6.50;;;8.70;99.90;;;;;;4988059;28;20388;-80
2022/06/14 09:21:43;;;;;;;22.45;6.38;;;8.70;99.90;;;;;;4988029;28;20401;-79
2022/06/14 09:24:53;;;;;;;25.88;6.70;;;8.70;99.90;;;;;;4987761;28;20396;-80
2022/06/14 09:27:40;;;;;;;19.85;5.55;;;8.70;99.90;;;;;;4987784;28;20384;-80
2022/06/14 09:30:29;;;;;;;15.38;4.60;;;8.70;99.90;;;;;;4930628;29;20369;-81
2022/06/14 09:33:14;;;;;;;19.30;5.20;;;8.80;99.90;;;;;;4930575;29;20779;-80
2022/06/14 09:35:58;;;;;;;20.20;5.15;;;8.80;99.90;;;;;;4929774;29;20878;-80
2022/06/14 09:38:41;;;;;;;18.63;5.50;;;8.80;99.90;;;;;;4929927;29;20394;-82
2022/06/14 09:41:17;;;;;;;18.13;5.20;;;8.70;99.90;;;;;;4981095;28;20413;-83
2022/06/14 09:44:31;;;;;;;16.75;5.35;;;8.60;99.90;;;;;;5027651;28;20370;-80
2022/06/14 09:47:32;;;;;;;25.08;6.82;;;8.50;99.90;;;;;;5027206;28;20378;-83
2022/06/14 09:50:42;;;;;;;23.35;5.30;;;8.40;99.90;;;;;;5027586;28;20365;-80
2022/06/14 09:53:28;;;;;;;31.67;14.68;;;8.40;99.90;;;;;;5026639;28;20382;-81
2022/06/14 09:56:01;;;;;;;52.92;38.13;;;8.50;99.90;;;;;;5026650;28;20911;-81
2022/06/14 09:59:04;;;;;;;32.97;19.00;;;8.50;99.90;;;;;;5010105;28;20444;-79
2022/06/14 10:01:50;;;;;;;26.00;16.20;;;8.40;99.90;;;;;;5026628;28;20932;-78
2022/06/14 10:04:38;;;;;;;32.25;17.58;;;8.30;99.90;;;;;;5027163;28;20416;-79
2022/06/14 10:07:08;;;;;;;26.48;16.73;;;8.10;99.90;;;;;;5054678;28;20884;-83
2022/06/14 10:09:46;;;;;;;76.40;61.60;;;8.00;99.90;;;;;;5088445;28;20742;-82
2022/06/14 10:12:37;;;;;;;50.78;37.03;;;7.90;99.90;;;;;;5089010;28;20889;-82
2022/06/14 10:15:12;;;;;;;30.75;21.88;;;7.80;99.90;;;;;;5088830;28;20503;-82
2022/06/14 10:17:49;;;;;;;37.17;22.35;;;7.70;99.90;;;;;;5088642;28;20368;-83
2022/06/14 10:20:37;;;;;;;26.95;16.35;;;7.60;99.90;;;;;;5089129;28;20403;-79
2022/06/14 10:23:49;;;;;;;29.20;16.75;;;7.60;99.90;;;;;;5088437;28;20382;-79
2022/06/14 10:29:32;;;;;;;23.20;12.52;;;7.50;99.90;;;;;;5088592;28;20372;-78
2022/06/14 10:32:23;;;;;;;31.35;13.13;;;7.40;99.90;;;;;;5088410;28;20437;-82
2022/06/14 10:35:22;;;;;;;26.35;11.40;;;7.30;99.90;;;;;;5089142;28;20365;-81
2022/06/14 10:38:14;;;;;;;23.80;11.43;;;7.30;99.90;;;;;;5088443;28;20419;-82
2022/06/14 10:40:47;;;;;;;21.67;10.23;;;7.20;99.90;;;;;;5088908;28;20396;-81
2022/06/14 10:43:38;;;;;;;25.40;11.17;;;7.10;99.90;;;;;;5088777;28;20524;-82
2022/06/14 10:46:10;;;;;;;20.58;11.10;;;7.00;99.90;;;;;;5090315;28;20448;-83
2022/06/14 10:49:11;;;;;;;22.05;10.65;;;7.00;99.90;;;;;;5088618;28;20379;-83
2022/06/14 10:51:59;;;;;;;21.23;8.20;;;6.90;99.90;;;;;;5089173;28;20717;-84
2022/06/14 10:54:29;;;;;;;18.85;8.70;;;6.90;99.90;;;;;;5088702;28;20712;-81
2022/06/14 10:57:07;;;;;;;21.77;7.80;;;6.80;99.90;;;;;;5088852;28;20366;-80
2022/06/14 10:59:52;;;;;;;22.70;7.82;;;6.80;99.90;;;;;;5087957;28;20385;-82
2022/06/14 11:02:53;;;;;;;17.07;8.70;;;6.70;99.90;;;;;;5088953;28;20876;-81
2022/06/14 11:05:41;;;;;;;22.00;8.60;;;6.80;99.90;;;;;;5091547;28;20464;-79
2022/06/14 11:08:36;;;;;;;16.88;7.82;;;6.80;99.90;;;;;;5088012;28;20391;-84
2022/06/14 11:11:12;;;;;;;17.92;7.53;;;6.80;99.90;;;;;;5088536;28;20371;-82
2022/06/14 11:14:06;;;;;;;18.67;7.95;;;6.80;99.90;;;;;;5088006;28;20388;-82
2022/06/14 11:17:12;;;;;;;16.83;8.70;;;6.70;99.90;;;;;;5088278;28;20393;-82
2022/06/14 11:20:11;;;;;;;14.25;8.20;;;6.70;99.90;;;;;;4986695;28;20405;-80
2022/06/14 11:22:54;;;;;;;14.73;8.80;;;6.70;99.90;;;;;;4986794;28;20478;-82
2022/06/14 11:25:43;;;;;;;15.90;9.55;;;6.60;99.90;;;;;;4987005;28;20428;-82
2022/06/14 11:28:36;;;;;;;15.98;8.88;;;6.60;99.90;;;;;;4990607;28;20455;-80
2022/06/14 11:31:34;;;;;;;11.55;8.10;;;6.50;99.90;;;;;;4990213;28;20439;-82
2022/06/14 11:34:22;;;;;;;11.80;8.23;;;6.40;99.90;;;;;;4989985;28;20384;-80
2022/06/14 11:37:20;;;;;;;14.40;9.23;;;6.40;99.90;;;;;;5005520;28;20399;-83
2022/06/14 11:39:54;;;;;;;14.38;9.07;;;6.30;99.90;;;;;;5009409;28;20411;-82
2022/06/14 11:42:43;;;;;;;14.82;9.43;;;6.30;99.90;;;;;;5009608;28;20375;-80
2022/06/14 11:45:29;;;;;;;12.77;9.15;;;6.20;99.90;;;;;;5011800;28;20415;-79
2022/06/14 11:48:03;;;;;;;14.52;9.07;;;6.20;99.90;;;;;;5009495;28;20521;-83
2022/06/14 11:50:49;;;;;;;13.70;10.00;;;6.10;99.90;;;;;;5009372;28;20439;-83
2022/06/14 11:53:44;;;;;;;16.70;11.18;;;6.20;99.90;;;;;;5009243;28;20866;-83
2022/06/14 11:56:30;;;;;;;21.95;13.63;;;6.10;99.90;;;;;;5041705;28;20383;-83
2022/06/14 11:59:09;;;;;;;21.23;14.88;;;6.10;99.90;;;;;;5091543;28;20876;-82
2022/06/14 12:02:06;;;;;;;25.10;15.82;;;6.10;99.90;;;;;;5091379;28;20907;-80
2022/06/14 12:04:57;;;;;;;24.55;15.85;;;6.00;99.90;;;;;;5090962;28;20854;-83
2022/06/14 12:07:33;;;;;;;23.63;15.90;;;6.00;99.90;;;;;;5091477;28;20395;-84
2022/06/14 12:10:24;;;;;;;22.10;15.45;;;6.00;99.90;;;;;;5090991;28;20365;-78
2022/06/14 12:13:09;;;;;;;23.98;14.18;;;6.00;99.90;;;;;;5091197;28;20468;-79
2022/06/14 12:15:41;;;;;;;21.67;14.13;;;5.90;99.90;;;;;;5090963;28;20410;-78
2022/06/14 12:18:13;;;;;;;23.17;14.05;;;5.90;99.90;;;;;;5091361;28;20901;-82
2022/06/14 12:20:56;;;;;;;23.13;15.40;;;5.90;99.90;;;;;;5091274;28;20573;-83
2022/06/14 12:23:53;;;;;;;23.80;15.27;;;5.90;99.90;;;;;;5091185;28;20367;-79
2022/06/14 12:26:40;;;;;;;20.30;15.05;;;5.90;99.90;;;;;;5087876;28;20380;-81
2022/06/14 12:29:28;;;;;;;21.33;15.48;;;5.80;99.90;;;;;;5090630;28;20367;-83
2022/06/14 12:32:19;;;;;;;24.10;17.80;;;5.80;99.90;;;;;;5090526;28;20920;-81
2022/06/14 12:35:07;;;;;;;26.27;17.25;;;5.80;99.90;;;;;;5089134;28;20748;-82
2022/06/14 12:37:43;;;;;;;25.20;16.48;;;5.80;99.90;;;;;;5089572;28;20890;-79
2022/06/14 12:40:32;;;;;;;27.38;18.95;;;5.70;99.90;;;;;;5090190;28;20423;-81
2022/06/14 12:43:15;;;;;;;29.10;19.48;;;5.70;99.90;;;;;;5090337;28;20782;-83
2022/06/14 12:46:02;;;;;;;27.75;20.95;;;5.60;99.90;;;;;;5090771;28;20456;-83
2022/06/14 12:48:57;;;;;;;27.52;19.95;;;5.60;99.90;;;;;;5089650;28;20737;-83
2022/06/14 12:51:44;;;;;;;25.10;19.20;;;5.60;99.90;;;;;;5090228;28;20369;-83
2022/06/14 12:54:51;;;;;;;23.23;17.48;;;5.50;99.90;;;;;;5008189;28;20927;-81
2022/06/14 12:57:36;;;;;;;21.75;15.82;;;5.50;99.90;;;;;;5008131;28;20542;-81
2022/06/14 13:00:24;;;;;;;22.40;18.02;;;5.50;99.90;;;;;;5008095;28;20805;-82
2022/06/14 13:03:17;;;;;;;22.60;17.42;;;5.50;99.90;;;;;;4930627;29;20405;-78
2022/06/14 13:05:55;;;;;;;23.10;17.92;;;5.50;99.90;;;;;;4923446;29;20897;-82
2022/06/14 13:08:47;;;;;;;26.98;19.27;;;5.50;99.90;;;;;;4930679;29;20390;-79
2022/06/14 13:11:35;;;;;;;26.88;19.17;;;5.40;99.90;;;;;;4914511;29;20398;-82
2022/06/14 13:14:02;;;;;;;23.90;18.27;;;5.40;99.90;;;;;;4931188;29;20390;-80
2022/06/14 13:16:53;;;;;;;20.17;16.48;;;5.40;99.90;;;;;;4930580;29;20445;-82
2022/06/14 13:19:46;;;;;;;22.30;17.92;;;5.40;99.90;;;;;;4930701;29;20485;-82
2022/06/14 13:22:13;;;;;;;20.17;16.73;;;5.40;99.90;;;;;;4930260;29;20734;-83
2022/06/14 13:25:04;;;;;;;17.25;15.38;;;5.30;99.90;;;;;;4930311;29;20383;-80
2022/06/14 13:27:49;;;;;;;16.48;14.77;;;5.30;99.90;;;;;;4930436;29;20405;-78
2022/06/14 13:30:37;;;;;;;20.58;16.55;;;5.20;99.90;;;;;;4939462;28;20823;-79
2022/06/14 13:33:45;;;;;;;22.00;17.20;;;5.20;99.90;;;;;;5027569;28;20449;-80
2022/06/14 13:36:42;;;;;;;21.40;16.85;;;5.20;99.90;;;;;;5026832;28;20454;-78
2022/06/14 13:39:47;;;;;;;21.98;16.75;;;5.10;99.90;;;;;;4991711;28;20367;-79
2022/06/14 13:42:31;;;;;;;22.33;17.27;;;5.00;99.90;;;;;;5007047;28;20882;-81
2022/06/14 13:45:05;;;;;;;23.00;18.13;;;4.90;99.90;;;;;;5007076;28;20899;-82
2022/06/14 13:48:10;;;;;;;20.70;17.70;;;4.90;99.90;;;;;;5007344;28;20820;-82
2022/06/14 13:50:45;;;;;;;21.75;17.48;;;4.80;99.90;;;;;;4929817;29;20382;-82
2022/06/14 13:53:24;;;;;;;23.42;17.10;;;4.80;99.90;;;;;;4929972;29;20925;-81
2022/06/14 13:56:02;;;;;;;22.10;16.77;;;4.80;99.90;;;;;;4930125;29;20382;-82
2022/06/14 13:58:49;;;;;;;18.70;15.43;;;4.70;99.90;;;;;;4929721;29;20477;-79
2022/06/14 14:01:39;;;;;;;19.85;15.10;;;4.70;99.90;;;;;;4929628;29;20420;-81
2022/06/14 14:04:24;;;;;;;18.90;15.35;;;4.70;99.90;;;;;;4930449;29;20385;-83
2022/06/14 14:24:00;;;;;;;16.13;14.15;;;4.50;99.90;;;;;;5089388;28;20390;-80
2022/06/14 14:26:45;;;;;;;17.80;13.80;;;4.50;99.90;;;;;;5088628;28;20379;-81
2022/06/14 14:29:18;;;;;;;22.17;15.95;;;4.50;99.90;;;;;;5088598;28;20451;-82
2022/06/14 14:31:54;;;;;;;18.80;16.23;;;4.60;99.90;;;;;;5089187;28;20876;-80